Time;durP1;ratioP1;P1;durP2;ratioP2;P2;SDS_P1;SDS_P2;PMS_P1;PMS_P2;Temp;Humidity;BMP_temperature;BMP_pressure;BME280_temperature;BME280_humidity;BME280_pressure;Samples;Min_cycle;Max_cycle;Signal;HPM_P1;HPM_P2
2023/12/15 00:00:35;;;;;;;5.73;4.47;;;;;;;4.39;92.70;96561.88;4977055;28;20190;-79
2023/12/15 00:03:01;;;;;;;6.93;5.10;;;;;;;4.34;92.38;96563.06;4997844;28;20215;-80
2023/12/15 00:05:26;;;;;;;5.57;4.50;;;;;;;4.34;92.35;96570.78;4995769;28;20207;-79
2023/12/15 00:07:52;;;;;;;6.17;5.10;;;;;;;4.36;92.55;96572.34;4994369;28;20190;-78
2023/12/15 00:10:17;;;;;;;9.10;6.30;;;;;;;4.40;92.43;96578.97;4976167;28;20249;-79
2023/12/15 00:12:43;;;;;;;7.00;5.00;;;;;;;4.40;92.22;96575.56;4994330;28;20203;-79
2023/12/15 00:15:09;;;;;;;6.83;5.13;;;;;;;4.38;92.83;96583.38;4978401;28;20210;-79
2023/12/15 00:17:34;;;;;;;8.63;5.97;;;;;;;4.46;92.52;96578.63;4996571;28;20200;-80
2023/12/15 00:20:00;;;;;;;8.20;5.73;;;;;;;4.47;92.47;96580.28;4995357;28;20205;-80
2023/12/15 00:22:25;;;;;;;8.20;5.60;;;;;;;4.50;92.53;96580.09;4976919;28;20226;-79
2023/12/15 00:24:50;;;;;;;10.10;6.80;;;;;;;4.48;92.89;96581.13;4974481;28;20693;-79
2023/12/15 00:27:16;;;;;;;10.47;6.87;;;;;;;4.50;92.92;96587.81;4960540;28;20195;-79
2023/12/15 00:29:41;;;;;;;10.87;6.83;;;;;;;4.53;92.82;96589.41;4977265;28;20220;-79
2023/12/15 00:32:06;;;;;;;9.93;7.07;;;;;;;4.53;92.47;96592.00;4975535;28;20191;-79
2023/12/15 00:34:32;;;;;;;11.93;7.70;;;;;;;4.37;92.81;96594.56;4975636;28;20675;-79
2023/12/15 00:36:57;;;;;;;8.70;6.57;;;;;;;4.22;92.65;96597.97;4967665;28;20710;-79
2023/12/15 00:39:22;;;;;;;11.17;7.43;;;;;;;4.34;92.16;96599.06;4965893;28;20186;-79
2023/12/15 00:41:48;;;;;;;10.50;7.93;;;;;;;4.40;91.89;96598.72;4975917;28;20190;-80
2023/12/15 00:44:13;;;;;;;9.67;6.97;;;;;;;4.33;91.62;96605.09;4972372;28;20179;-78
2023/12/15 00:46:38;;;;;;;10.67;6.93;;;;;;;4.39;91.67;96607.34;4994786;28;20232;-78
2023/12/15 00:49:04;;;;;;;10.77;7.13;;;;;;;4.30;91.56;96606.09;4993608;28;20668;-79
2023/12/15 00:51:29;;;;;;;12.33;7.30;;;;;;;4.25;92.22;96608.94;4975925;28;20637;-79
2023/12/15 00:53:55;;;;;;;11.20;6.90;;;;;;;4.33;91.58;96618.81;4977469;28;20210;-79
2023/12/15 00:56:20;;;;;;;8.67;7.20;;;;;;;4.36;91.54;96615.22;4968972;28;20631;-79
2023/12/15 00:58:45;;;;;;;11.73;7.53;;;;;;;4.30;91.43;96625.84;4976247;28;20249;-80
2023/12/15 01:01:11;;;;;;;10.07;6.97;;;;;;;4.21;91.65;96633.13;4995296;28;20706;-79
2023/12/15 01:03:37;;;;;;;10.70;7.27;;;;;;;4.26;91.57;96627.75;4997416;28;20234;-79
2023/12/15 01:06:02;;;;;;;9.13;6.07;;;;;;;4.25;91.58;96634.66;4977086;28;20211;-79
2023/12/15 01:08:28;;;;;;;10.70;7.20;;;;;;;4.22;92.04;96646.81;4960631;28;20562;-79
2023/12/15 01:10:53;;;;;;;12.10;7.30;;;;;;;4.18;91.51;96651.31;4992808;28;20180;-79
2023/12/15 01:13:18;;;;;;;9.03;6.27;;;;;;;4.15;91.37;96654.06;4968725;28;20191;-79
2023/12/15 01:15:44;;;;;;;9.40;6.53;;;;;;;4.27;91.10;96657.69;4992827;28;20225;-79
2023/12/15 01:18:09;;;;;;;11.13;6.93;;;;;;;4.13;91.16;96657.59;4994003;28;20244;-80
2023/12/15 01:20:35;;;;;;;9.87;6.93;;;;;;;4.16;90.99;96655.72;4975539;28;20189;-79
2023/12/15 01:23:00;;;;;;;8.00;6.10;;;;;;;4.05;91.27;96663.13;4994822;28;20210;-80
2023/12/15 01:25:26;;;;;;;8.30;6.30;;;;;;;4.11;90.74;96667.97;4978389;28;20238;-78
2023/12/15 01:27:51;;;;;;;9.07;6.37;;;;;;;4.11;90.45;96665.38;4971905;28;20826;-79
2023/12/15 01:30:17;;;;;;;8.20;6.43;;;;;;;3.97;90.56;96670.41;4976573;28;20188;-79
2023/12/15 01:32:42;;;;;;;8.50;6.40;;;;;;;4.02;90.18;96662.47;4994321;28;20186;-79
2023/12/15 01:35:08;;;;;;;10.03;6.40;;;;;;;3.98;90.36;96672.94;4977260;28;20228;-78
2023/12/15 01:37:33;;;;;;;11.60;6.67;;;;;;;4.05;90.03;96683.69;4974884;28;20200;-79
2023/12/15 01:39:58;;;;;;;11.77;7.30;;;;;;;3.98;90.33;96678.06;4994588;28;20281;-79
2023/12/15 01:42:26;;;;;;;10.10;6.23;;;;;;;4.06;90.17;96687.91;4992933;28;20235;-79
2023/12/15 01:44:51;;;;;;;10.57;6.47;;;;;;;3.93;90.38;96684.34;4960542;28;20224;-79
2023/12/15 01:47:18;;;;;;;7.13;5.57;;;;;;;4.02;90.54;96686.44;4976147;28;20199;-80
2023/12/15 01:49:45;;;;;;;9.17;6.63;;;;;;;3.93;90.77;96692.88;4977494;28;20584;-78
2023/12/15 01:52:10;;;;;;;10.03;6.90;;;;;;;4.02;90.42;96693.31;4976255;28;20189;-79
2023/12/15 01:54:35;;;;;;;9.73;6.17;;;;;;;4.07;89.54;96693.94;4976387;28;20215;-79
2023/12/15 01:57:01;;;;;;;7.37;5.50;;;;;;;4.07;89.97;96692.19;4975550;28;20739;-79
2023/12/15 01:59:26;;;;;;;8.07;6.00;;;;;;;4.12;89.81;96700.47;4991347;28;20275;-79
2023/12/15 02:01:51;;;;;;;8.50;6.13;;;;;;;4.11;89.60;96693.66;4975288;28;20638;-79
2023/12/15 02:04:17;;;;;;;8.03;5.40;;;;;;;4.10;89.55;96697.16;4980323;28;20187;-78
2023/12/15 02:06:42;;;;;;;8.90;6.07;;;;;;;4.06;89.29;96705.91;4973292;28;20598;-79
2023/12/15 02:09:07;;;;;;;7.27;5.33;;;;;;;4.00;89.52;96701.13;4991888;28;20190;-78
2023/12/15 02:11:33;;;;;;;7.93;5.30;;;;;;;4.06;89.53;96710.22;4992748;28;20271;-78
2023/12/15 02:13:58;;;;;;;7.20;4.67;;;;;;;4.05;89.31;96704.25;4976175;28;20220;-78
2023/12/15 02:16:23;;;;;;;7.23;5.37;;;;;;;4.04;89.49;96712.88;4993593;28;20788;-78
2023/12/15 02:18:49;;;;;;;5.97;4.87;;;;;;;4.08;89.49;96718.72;4974629;28;20195;-79
2023/12/15 02:21:14;;;;;;;9.27;5.13;;;;;;;4.04;89.10;96719.78;4987369;28;20619;-79
2023/12/15 02:23:40;;;;;;;6.50;5.13;;;;;;;4.09;88.95;96725.50;4992533;28;20241;-79
2023/12/15 02:26:05;;;;;;;8.40;5.00;;;;;;;4.09;89.02;96728.91;4993870;28;20212;-79
2023/12/15 02:28:30;;;;;;;6.23;4.73;;;;;;;4.08;88.95;96724.69;4959139;28;20214;-78
2023/12/15 02:30:56;;;;;;;7.93;5.60;;;;;;;4.09;89.17;96728.91;4976594;28;20802;-78
2023/12/15 02:33:21;;;;;;;8.80;5.17;;;;;;;4.07;89.32;96729.91;4979912;28;20273;-79
2023/12/15 02:35:48;;;;;;;5.93;4.77;;;;;;;4.10;89.11;96740.84;4976916;28;20233;-78
2023/12/15 02:38:18;;;;;;;8.77;6.17;;;;;;;4.07;89.29;96743.59;4993400;28;20191;-79
2023/12/15 02:40:44;;;;;;;7.40;5.17;;;;;;;3.88;89.31;96745.41;4974528;28;20271;-79
2023/12/15 02:43:12;;;;;;;6.80;5.40;;;;;;;3.97;89.25;96750.91;4992626;28;20296;-80
2023/12/15 02:45:38;;;;;;;8.63;6.37;;;;;;;4.01;89.11;96741.31;4960367;28;20211;-79
2023/12/15 02:48:03;;;;;;;8.47;5.70;;;;;;;4.06;89.21;96746.22;4991587;28;20662;-79
2023/12/15 02:50:29;;;;;;;7.63;5.87;;;;;;;4.07;89.09;96758.19;4975261;28;20671;-80
2023/12/15 02:52:54;;;;;;;7.07;5.63;;;;;;;4.08;88.75;96750.41;4993585;28;20187;-80
2023/12/15 02:55:19;;;;;;;9.60;6.37;;;;;;;4.04;89.14;96758.31;4975768;28;20211;-79
2023/12/15 02:57:45;;;;;;;9.83;6.90;;;;;;;4.05;89.46;96755.66;4975889;28;20195;-80
2023/12/15 03:00:11;;;;;;;8.40;6.50;;;;;;;4.00;89.33;96761.97;4995279;28;20558;-78
2023/12/15 03:02:36;;;;;;;10.23;6.90;;;;;;;4.02;89.48;96760.16;4998577;28;20211;-78
2023/12/15 03:05:01;;;;;;;10.07;7.17;;;;;;;4.07;89.24;96765.91;4977844;28;20220;-78
2023/12/15 03:07:27;;;;;;;11.80;8.33;;;;;;;3.91;90.14;96764.09;4977158;28;20660;-79
2023/12/15 03:09:52;;;;;;;10.70;7.17;;;;;;;4.06;89.90;96762.47;4992590;28;20199;-78
2023/12/15 03:12:18;;;;;;;11.40;7.47;;;;;;;4.12;89.44;96764.75;4993513;28;20184;-79
2023/12/15 03:14:43;;;;;;;11.80;7.20;;;;;;;4.03;90.02;96766.94;4965248;28;20217;-79
2023/12/15 03:17:08;;;;;;;11.57;7.40;;;;;;;4.00;89.83;96774.81;4992658;28;20636;-78
2023/12/15 03:19:34;;;;;;;12.73;8.40;;;;;;;4.10;89.82;96779.41;4975055;28;20228;-78
2023/12/15 03:21:59;;;;;;;11.67;8.23;;;;;;;3.97;89.66;96774.03;4993276;28;20234;-79
2023/12/15 03:24:24;;;;;;;10.83;8.50;;;;;;;4.06;90.31;96775.31;4975635;28;20263;-79
2023/12/15 03:26:50;;;;;;;12.13;8.23;;;;;;;4.05;90.15;96768.53;4966357;28;20573;-79
2023/12/15 03:29:15;;;;;;;10.33;7.80;;;;;;;3.96;90.15;96772.38;4975743;28;20275;-78
2023/12/15 03:31:41;;;;;;;11.90;8.37;;;;;;;4.03;89.90;96774.66;4973040;28;20203;-78
2023/12/15 03:34:07;;;;;;;11.27;7.90;;;;;;;4.05;89.63;96777.97;4995352;28;20753;-79
2023/12/15 03:36:38;;;;;;;9.93;7.37;;;;;;;4.09;89.66;96782.91;4997277;28;20191;-78
2023/12/15 03:39:04;;;;;;;12.33;7.33;;;;;;;4.07;89.57;96778.75;4978852;28;20685;-79
2023/12/15 03:41:30;;;;;;;12.47;7.60;;;;;;;4.09;89.27;96789.78;4994293;28;20190;-79
2023/12/15 03:43:55;;;;;;;10.23;7.43;;;;;;;4.17;88.85;96785.91;4996711;28;20214;-79
2023/12/15 03:46:20;;;;;;;10.27;7.13;;;;;;;4.00;89.22;96793.66;4995194;28;20749;-79
2023/12/15 03:48:46;;;;;;;10.80;7.80;;;;;;;4.05;89.44;96793.41;4977835;28;20196;-80
2023/12/15 03:51:11;;;;;;;9.00;6.90;;;;;;;4.04;89.41;96789.16;4977668;28;20897;-79
2023/12/15 03:53:36;;;;;;;10.93;7.47;;;;;;;3.97;89.93;96788.63;4996413;28;20201;-79
2023/12/15 03:56:02;;;;;;;9.07;6.97;;;;;;;4.05;89.51;96798.53;4978920;28;20208;-79
2023/12/15 03:58:27;;;;;;;10.87;8.00;;;;;;;4.05;89.42;96798.53;4961811;28;20184;-79
2023/12/15 04:00:53;;;;;;;10.07;7.73;;;;;;;4.04;89.95;96797.72;4991313;28;20193;-79
2023/12/15 04:03:18;;;;;;;12.33;8.50;;;;;;;4.05;89.79;96799.38;4998098;28;20246;-79
2023/12/15 04:05:43;;;;;;;13.27;8.37;;;;;;;4.12;89.73;96800.72;4978353;28;20208;-79
2023/12/15 04:08:09;;;;;;;12.70;8.87;;;;;;;4.04;89.73;96804.59;4978352;28;20267;-78
2023/12/15 04:10:34;;;;;;;10.87;8.13;;;;;;;4.05;89.95;96819.94;4977806;28;20692;-79
2023/12/15 04:12:59;;;;;;;11.40;8.77;;;;;;;3.94;90.39;96812.75;4978222;28;20574;-80
2023/12/15 04:15:25;;;;;;;14.53;8.47;;;;;;;4.11;90.19;96811.09;4978746;28;20244;-80
2023/12/15 04:17:50;;;;;;;14.73;8.40;;;;;;;4.05;90.16;96807.06;4995477;28;20196;-78
2023/12/15 04:20:15;;;;;;;14.10;9.80;;;;;;;3.98;90.60;96806.56;4995523;28;20227;-78
2023/12/15 04:22:41;;;;;;;14.77;8.90;;;;;;;4.03;90.59;96808.91;4996011;28;20211;-79
2023/12/15 04:25:06;;;;;;;13.37;10.23;;;;;;;4.11;90.50;96813.66;4995714;28;20579;-80
2023/12/15 04:27:32;;;;;;;15.43;9.83;;;;;;;4.07;90.30;96822.44;4977923;28;20192;-79
2023/12/15 04:29:57;;;;;;;15.73;10.17;;;;;;;4.05;90.66;96832.78;4978635;28;20562;-79
2023/12/15 04:32:23;;;;;;;15.07;9.30;;;;;;;4.03;90.35;96829.47;4998756;28;20183;-78
2023/12/15 04:34:48;;;;;;;18.73;10.47;;;;;;;4.04;90.72;96832.88;4995652;28;20219;-78
2023/12/15 04:37:14;;;;;;;16.93;9.87;;;;;;;4.03;90.87;96837.19;4978090;28;20198;-79
2023/12/15 04:39:39;;;;;;;14.33;10.70;;;;;;;4.05;91.09;96845.63;4978984;28;20195;-79
2023/12/15 04:42:05;;;;;;;16.17;10.93;;;;;;;4.07;91.15;96849.00;4978028;28;20632;-79
2023/12/15 04:44:30;;;;;;;17.43;10.87;;;;;;;3.95;91.54;96849.56;4994730;28;20216;-79
2023/12/15 04:46:55;;;;;;;16.13;10.30;;;;;;;4.04;91.29;96849.13;4977407;28;20196;-80
2023/12/15 04:49:21;;;;;;;14.40;9.83;;;;;;;3.94;91.64;96847.91;4978322;28;20544;-79
2023/12/15 04:51:46;;;;;;;15.97;10.53;;;;;;;4.08;91.31;96852.38;4977383;28;20692;-78
2023/12/15 04:54:12;;;;;;;18.77;11.00;;;;;;;4.10;90.98;96858.28;4994839;28;20197;-79
2023/12/15 04:56:37;;;;;;;15.87;10.93;;;;;;;4.15;90.65;96858.88;4995316;28;20188;-79
2023/12/15 04:59:02;;;;;;;16.77;10.53;;;;;;;4.18;90.76;96857.00;4977442;28;20189;-80
2023/12/15 05:01:28;;;;;;;13.10;10.23;;;;;;;4.25;90.64;96871.22;4996968;28;20187;-80
2023/12/15 05:03:53;;;;;;;15.10;9.63;;;;;;;4.17;90.68;96867.34;4997186;28;20374;-79
2023/12/15 05:06:19;;;;;;;16.83;10.40;;;;;;;4.25;90.41;96876.34;4977657;28;20211;-78
2023/12/15 05:08:48;;;;;;;17.47;10.93;;;;;;;4.00;91.77;96875.91;4977052;28;20624;-79
2023/12/15 05:11:14;;;;;;;15.20;10.70;;;;;;;4.17;91.12;96877.63;4976267;28;20191;-78
2023/12/15 05:13:39;;;;;;;14.03;9.70;;;;;;;4.13;91.14;96882.09;4993817;28;20184;-79
2023/12/15 05:16:05;;;;;;;14.97;10.40;;;;;;;4.26;90.68;96887.47;4993499;28;20233;-79
2023/12/15 05:18:31;;;;;;;15.47;10.30;;;;;;;4.30;91.18;96890.72;4974433;28;20187;-80
2023/12/15 05:20:56;;;;;;;16.93;11.20;;;;;;;4.32;90.56;96894.03;4994140;28;20657;-79
2023/12/15 05:23:22;;;;;;;16.90;10.53;;;;;;;4.33;90.66;96900.81;4976877;28;20214;-78
2023/12/15 05:25:47;;;;;;;16.87;10.83;;;;;;;4.34;90.62;96905.09;4994009;28;20210;-78
2023/12/15 05:28:12;;;;;;;13.73;10.37;;;;;;;4.26;90.96;96897.75;4977155;28;20202;-79
2023/12/15 05:30:38;;;;;;;18.70;10.63;;;;;;;4.41;90.92;96916.72;4978208;28;20191;-78
2023/12/15 05:33:03;;;;;;;16.17;11.33;;;;;;;4.34;91.10;96920.53;4995563;28;20637;-79
2023/12/15 05:35:28;;;;;;;15.53;10.90;;;;;;;4.41;91.16;96922.69;4976653;28;20207;-79
2023/12/15 05:37:54;;;;;;;13.77;10.37;;;;;;;4.46;91.12;96931.03;4975425;28;20188;-79
2023/12/15 05:40:19;;;;;;;14.17;10.70;;;;;;;4.45;91.00;96941.38;4993528;28;20202;-78
2023/12/15 05:42:44;;;;;;;15.43;10.77;;;;;;;4.49;91.25;96945.47;4976245;28;20216;-79
2023/12/15 05:45:10;;;;;;;16.53;12.13;;;;;;;4.31;92.09;96944.63;4994133;28;20686;-79
2023/12/15 05:47:36;;;;;;;20.87;11.50;;;;;;;4.44;91.59;96948.28;4993472;28;20191;-79
2023/12/15 05:50:02;;;;;;;17.30;11.23;;;;;;;4.54;91.31;96948.66;4977431;28;20191;-78
2023/12/15 05:52:27;;;;;;;17.67;12.00;;;;;;;4.45;91.82;96943.97;4994433;28;20743;-78
2023/12/15 05:54:53;;;;;;;19.80;13.10;;;;;;;4.54;92.38;96962.34;4993927;28;20204;-78
2023/12/15 05:57:18;;;;;;;18.83;12.47;;;;;;;4.55;91.97;96965.75;4993863;28;20188;-78
2023/12/15 05:59:44;;;;;;;18.90;13.60;;;;;;;4.51;92.27;96961.69;4963050;28;20183;-78
2023/12/15 06:02:09;;;;;;;21.37;14.20;;;;;;;4.48;92.69;96964.38;4973711;28;20205;-79
2023/12/15 06:04:35;;;;;;;20.63;13.67;;;;;;;4.55;92.56;96966.56;4977502;28;20215;-79
2023/12/15 06:07:00;;;;;;;22.23;13.47;;;;;;;4.54;92.73;96971.81;4959747;28;20253;-79
2023/12/15 06:09:26;;;;;;;20.07;13.87;;;;;;;4.55;92.89;96970.88;4993741;28;20232;-79
2023/12/15 06:11:53;;;;;;;21.30;14.33;;;;;;;4.51;93.68;96977.94;4971888;28;20189;-80
2023/12/15 06:14:20;;;;;;;23.33;14.20;;;;;;;4.52;93.20;96989.06;4976479;28;20605;-78
2023/12/15 06:16:46;;;;;;;24.77;14.73;;;;;;;4.42;94.24;96993.00;4976676;28;20206;-79
2023/12/15 06:19:11;;;;;;;23.57;14.23;;;;;;;4.47;93.89;96988.44;4993496;28;20539;-79
2023/12/15 06:21:37;;;;;;;24.37;14.30;;;;;;;4.57;93.66;96991.38;4993674;28;20199;-79
2023/12/15 06:24:03;;;;;;;24.57;14.97;;;;;;;4.46;94.47;96994.50;4993612;28;20215;-79
2023/12/15 06:26:28;;;;;;;20.40;14.07;;;;;;;4.47;93.79;96998.72;4976399;28;20618;-79
2023/12/15 06:28:54;;;;;;;24.30;15.27;;;;;;;4.57;93.75;96996.53;4994469;28;20243;-79
2023/12/15 06:31:19;;;;;;;23.60;14.43;;;;;;;4.58;93.29;97006.75;4995480;28;20191;-78
2023/12/15 06:33:44;;;;;;;23.07;15.53;;;;;;;4.43;94.03;97007.53;4996114;28;20188;-78
2023/12/15 06:36:10;;;;;;;24.93;15.20;;;;;;;4.58;93.98;97003.34;4995027;28;20211;-79
2023/12/15 06:38:36;;;;;;;25.90;15.47;;;;;;;4.62;93.47;97007.44;4993588;28;20236;-79
2023/12/15 06:41:05;;;;;;;23.47;16.07;;;;;;;4.67;93.41;97014.00;4975720;28;20202;-78
2023/12/15 06:43:31;;;;;;;29.73;18.03;;;;;;;4.62;93.83;97017.75;4992898;28;20208;-80
2023/12/15 06:45:56;;;;;;;35.77;23.70;;;;;;;4.63;93.90;97021.97;4991741;28;20484;-78
2023/12/15 06:48:22;;;;;;;34.83;23.37;;;;;;;4.64;93.70;97027.03;4948247;28;20190;-78
2023/12/15 06:50:47;;;;;;;34.57;23.40;;;;;;;4.68;93.41;97020.84;4976062;28;20188;-79
2023/12/15 06:53:13;;;;;;;31.93;21.37;;;;;;;4.66;93.46;97034.69;4959948;28;20670;-79
2023/12/15 06:55:38;;;;;;;27.23;19.33;;;;;;;4.59;93.67;97044.44;4974267;28;20211;-80
2023/12/15 06:58:03;;;;;;;28.23;20.73;;;;;;;4.66;93.53;97040.66;4992663;28;20192;-78
2023/12/15 07:00:29;;;;;;;25.97;19.90;;;;;;;4.74;93.20;97045.44;4977113;28;20188;-80
2023/12/15 07:02:54;;;;;;;26.00;18.60;;;;;;;4.65;93.04;97048.47;4979279;28;20298;-79
2023/12/15 07:05:19;;;;;;;27.73;18.07;;;;;;;4.63;93.64;97055.41;4968515;28;20209;-78
2023/12/15 07:07:45;;;;;;;24.23;16.87;;;;;;;4.62;93.62;97053.75;4974216;28;20282;-78
2023/12/15 07:10:10;;;;;;;21.53;15.33;;;;;;;4.63;93.55;97058.00;4971740;28;20216;-79
2023/12/15 07:12:36;;;;;;;23.93;17.83;;;;;;;4.66;93.56;97060.41;4992942;28;20199;-79
2023/12/15 07:15:01;;;;;;;27.90;17.30;;;;;;;4.74;93.18;97059.13;4971406;28;20226;-79
2023/12/15 07:17:26;;;;;;;27.33;18.77;;;;;;;4.71;93.17;97061.88;4970382;28;20199;-79
2023/12/15 07:19:51;;;;;;;23.40;16.43;;;;;;;4.73;93.50;97065.19;4972808;28;20191;-79
2023/12/15 07:22:17;;;;;;;23.93;15.30;;;;;;;4.65;93.89;97059.59;4973607;28;20246;-78
2023/12/15 07:24:42;;;;;;;26.30;16.83;;;;;;;4.66;93.91;97070.69;4977784;28;20303;-78
2023/12/15 07:27:07;;;;;;;22.03;15.37;;;;;;;4.66;93.96;97066.38;4976061;28;20199;-81
2023/12/15 07:29:33;;;;;;;22.50;15.30;;;;;;;4.74;94.03;97074.56;4976345;28;20199;-79
2023/12/15 07:31:58;;;;;;;23.50;15.30;;;;;;;4.74;93.99;97072.00;4994511;28;20721;-79
2023/12/15 07:34:23;;;;;;;25.43;16.00;;;;;;;4.80;93.72;97068.31;4980235;28;20247;-79
2023/12/15 07:36:49;;;;;;;20.90;14.30;;;;;;;4.87;93.42;97077.41;4978557;28;20254;-79
2023/12/15 07:39:21;;;;;;;22.23;15.53;;;;;;;4.86;93.59;97082.59;4976303;28;20192;-79
2023/12/15 07:41:46;;;;;;;22.13;14.63;;;;;;;4.87;93.25;97084.28;4994697;28;20192;-78
2023/12/15 07:44:13;;;;;;;23.27;15.40;;;;;;;4.79;93.77;97092.38;4995426;28;20228;-79
2023/12/15 07:46:38;;;;;;;21.97;14.73;;;;;;;4.79;93.97;97082.09;4994817;28;20246;-79
2023/12/15 07:49:03;;;;;;;23.13;14.53;;;;;;;4.87;93.61;97092.00;4994243;28;20273;-79
2023/12/15 07:51:29;;;;;;;27.80;14.73;;;;;;;4.88;93.95;97093.66;4978430;28;20197;-79
2023/12/15 07:53:54;;;;;;;24.77;15.03;;;;;;;4.86;93.79;97101.47;4997223;28;20184;-79
2023/12/15 07:56:24;;;;;;;24.97;17.03;;;;;;;4.98;93.67;97107.75;4976817;28;20658;-79
2023/12/15 07:58:50;;;;;;;24.77;16.03;;;;;;;4.94;93.28;97101.91;4992521;28;20222;-80
2023/12/15 08:01:17;;;;;;;28.83;17.07;;;;;;;5.09;93.27;97105.47;4978314;28;20200;-79
2023/12/15 08:03:43;;;;;;;29.07;16.27;;;;;;;5.07;93.16;97107.31;4980119;28;20303;-78
2023/12/15 08:06:08;;;;;;;26.40;16.07;;;;;;;5.04;93.23;97113.44;4995234;28;20335;-79
2023/12/15 08:08:33;;;;;;;23.47;16.13;;;;;;;5.11;92.95;97112.22;4993523;28;20346;-79
2023/12/15 08:10:59;;;;;;;26.53;15.93;;;;;;;5.20;92.95;97123.78;4959564;28;20188;-78
2023/12/15 08:13:24;;;;;;;39.03;25.10;;;;;;;5.20;92.39;97128.94;4992604;28;20689;-79
2023/12/15 08:15:49;;;;;;;39.83;25.40;;;;;;;5.33;92.24;97122.28;4992478;28;20218;-81
2023/12/15 08:18:15;;;;;;;44.23;30.03;;;;;;;5.42;92.03;97123.56;4972019;28;20674;-79
2023/12/15 08:20:40;;;;;;;28.47;19.03;;;;;;;5.45;91.74;97125.97;4976233;28;20657;-80
2023/12/15 08:23:05;;;;;;;20.00;13.60;;;;;;;5.35;91.58;97128.19;4977349;28;20615;-79
2023/12/15 08:25:30;;;;;;;19.87;13.90;;;;;;;5.37;91.83;97136.66;4993957;28;20218;-79
2023/12/15 08:27:56;;;;;;;21.17;12.70;;;;;;;5.33;91.36;97142.06;4966832;28;20685;-79
2023/12/15 08:30:21;;;;;;;20.83;13.60;;;;;;;5.47;91.14;97141.34;4998121;28;20198;-78
2023/12/15 08:32:46;;;;;;;18.10;13.83;;;;;;;5.56;91.33;97161.50;4980821;28;20193;-78
2023/12/15 08:35:12;;;;;;;17.03;12.13;;;;;;;5.53;91.19;97161.66;4956888;28;20266;-79
2023/12/15 08:37:37;;;;;;;21.77;12.87;;;;;;;5.56;91.04;97162.34;4978373;28;20191;-79
2023/12/15 08:40:03;;;;;;;16.03;11.20;;;;;;;5.59;90.80;97169.09;4990407;28;20195;-79
2023/12/15 08:42:28;;;;;;;18.33;12.97;;;;;;;5.58;90.68;97170.00;4996371;28;20212;-79
2023/12/15 08:44:53;;;;;;;15.33;10.93;;;;;;;5.65;90.67;97163.63;4975495;28;20265;-79
2023/12/15 08:47:19;;;;;;;16.23;11.53;;;;;;;5.64;90.36;97160.22;4973191;28;20204;-79
2023/12/15 08:49:44;;;;;;;12.43;10.13;;;;;;;5.47;90.25;97167.13;4992165;28;20217;-78
2023/12/15 08:52:09;;;;;;;12.60;9.87;;;;;;;5.51;90.13;97171.22;4970134;28;20203;-78
2023/12/15 08:54:34;;;;;;;13.67;10.23;;;;;;;5.49;90.20;97171.31;4975954;28;20254;-78
2023/12/15 08:57:00;;;;;;;16.87;10.43;;;;;;;5.56;90.49;97176.97;4978204;28;20223;-79
2023/12/15 08:59:25;;;;;;;15.50;11.10;;;;;;;5.59;90.32;97171.69;4994446;28;20261;-79
2023/12/15 09:01:50;;;;;;;17.37;10.17;;;;;;;5.50;90.15;97187.59;4973424;28;20204;-79
2023/12/15 09:04:16;;;;;;;13.87;10.00;;;;;;;5.59;90.33;97187.13;4980298;28;20216;-82
2023/12/15 09:06:41;;;;;;;9.87;7.37;;;;;;;5.51;89.48;97184.13;4992480;28;20725;-78
2023/12/15 09:09:07;;;;;;;11.67;7.83;;;;;;;5.43;89.74;97186.22;4992694;28;20183;-79
2023/12/15 09:11:33;;;;;;;9.70;7.13;;;;;;;5.62;88.79;97180.06;4975980;28;20215;-78
2023/12/15 09:14:01;;;;;;;11.03;8.07;;;;;;;5.64;89.15;97191.13;4993324;28;20184;-79
2023/12/15 09:16:26;;;;;;;13.33;8.73;;;;;;;5.65;88.54;97189.38;4976363;28;20265;-79
2023/12/15 09:18:52;;;;;;;10.93;8.20;;;;;;;5.46;88.54;97191.22;4973291;28;20238;-78
2023/12/15 09:21:17;;;;;;;10.93;8.30;;;;;;;5.64;88.62;97200.59;4976745;28;20409;-79
2023/12/15 09:23:42;;;;;;;14.57;8.63;;;;;;;5.65;88.59;97197.97;4990876;28;20301;-80
2023/12/15 09:26:07;;;;;;;10.03;8.00;;;;;;;5.78;88.53;97216.22;4991094;28;20212;-79
2023/12/15 09:28:33;;;;;;;15.23;9.20;;;;;;;5.73;88.82;97215.63;4974571;28;20642;-80
2023/12/15 09:30:58;;;;;;;12.63;8.90;;;;;;;5.64;88.80;97211.75;4990461;28;20598;-79
2023/12/15 09:33:24;;;;;;;11.77;8.43;;;;;;;5.40;89.38;97207.84;4978427;28;20553;-79
2023/12/15 09:35:53;;;;;;;9.23;7.53;;;;;;;5.36;88.86;97209.72;4967669;28;20215;-79
2023/12/15 09:38:18;;;;;;;10.77;6.73;;;;;;;5.24;89.18;97214.63;4995128;28;20214;-79
2023/12/15 09:40:45;;;;;;;10.07;7.10;;;;;;;5.57;88.58;97209.59;4961287;28;20185;-79
2023/12/15 09:43:10;;;;;;;12.30;8.97;;;;;;;5.40;88.66;97208.66;4976021;28;20212;-79
2023/12/15 09:45:36;;;;;;;12.47;8.03;;;;;;;5.61;88.29;97208.50;4992857;28;20207;-79
2023/12/15 09:48:04;;;;;;;11.13;7.50;;;;;;;5.41;88.05;97214.66;4989604;28;20181;-79
2023/12/15 09:50:32;;;;;;;8.73;7.03;;;;;;;5.44;87.77;97222.22;4978501;28;20300;-80
2023/12/15 09:52:58;;;;;;;9.53;7.43;;;;;;;5.73;87.88;97228.50;4975430;28;20247;-79
2023/12/15 09:55:24;;;;;;;9.17;7.10;;;;;;;5.80;87.22;97221.31;4959304;28;20208;-79
2023/12/15 09:57:50;;;;;;;10.07;7.00;;;;;;;5.63;87.18;97220.41;4977705;28;20692;-80
2023/12/15 10:00:16;;;;;;;12.17;7.57;;;;;;;5.94;87.78;97221.47;4975794;28;20215;-80
2023/12/15 10:02:44;;;;;;;10.00;7.00;;;;;;;5.47;88.02;97228.97;4977276;28;20202;-78
2023/12/15 10:05:10;;;;;;;10.10;7.37;;;;;;;6.00;87.28;97228.88;4974786;28;20207;-78
2023/12/15 10:07:35;;;;;;;8.20;5.90;;;;;;;5.63;86.67;97227.28;4987542;28;20740;-79
2023/12/15 10:10:00;;;;;;;8.90;6.43;;;;;;;6.21;85.78;97224.38;4972921;28;20190;-78
2023/12/15 10:12:29;;;;;;;12.10;6.67;;;;;;;6.39;85.16;97230.31;4975610;28;20191;-80
2023/12/15 10:14:56;;;;;;;8.73;6.10;;;;;;;6.47;84.17;97241.91;4979026;28;20230;-79
2023/12/15 10:17:21;;;;;;;6.87;5.90;;;;;;;6.66;83.22;97238.34;4972755;28;20200;-79
2023/12/15 10:19:46;;;;;;;7.60;6.30;;;;;;;6.73;82.71;97248.25;4993292;28;20262;-79
2023/12/15 10:22:13;;;;;;;7.57;6.23;;;;;;;6.72;82.95;97244.03;4958508;28;20218;-78
2023/12/15 10:24:39;;;;;;;7.80;5.40;;;;;;;6.71;83.34;97251.81;4991046;28;20219;-79
2023/12/15 10:27:07;;;;;;;7.60;4.90;;;;;;;6.79;82.36;97257.41;4991754;28;20966;-79
2023/12/15 10:29:33;;;;;;;6.47;4.87;;;;;;;6.55;83.27;97258.75;4975273;28;20187;-79
2023/12/15 10:31:58;;;;;;;7.47;4.90;;;;;;;6.53;83.39;97254.47;4974827;28;20191;-80
2023/12/15 10:34:25;;;;;;;5.30;4.53;;;;;;;6.44;83.93;97259.28;4959212;28;20617;-79
2023/12/15 10:36:51;;;;;;;7.13;4.73;;;;;;;6.40;83.76;97256.03;4969776;28;20222;-79
2023/12/15 10:39:17;;;;;;;6.67;4.20;;;;;;;6.33;84.68;97252.09;4975457;28;20222;-79
2023/12/15 10:41:43;;;;;;;8.23;4.60;;;;;;;6.20;84.41;97251.09;4993197;28;20279;-78
2023/12/15 10:44:09;;;;;;;5.93;3.90;;;;;;;6.29;83.94;97247.19;4974855;28;20761;-79
2023/12/15 10:46:35;;;;;;;3.57;2.73;;;;;;;5.94;84.42;97242.09;4963115;28;20196;-79
2023/12/15 10:49:01;;;;;;;4.90;3.53;;;;;;;6.12;84.31;97235.19;4978846;28;20273;-79
2023/12/15 10:51:27;;;;;;;7.87;5.13;;;;;;;6.12;84.14;97242.91;4979962;28;20250;-79
2023/12/15 10:53:56;;;;;;;14.97;7.93;;;;;;;6.28;83.63;97243.78;4972791;28;20183;-79
2023/12/15 10:56:22;;;;;;;10.17;6.10;;;;;;;6.53;82.30;97246.72;4980388;28;20745;-79
2023/12/15 10:58:48;;;;;;;5.07;3.30;;;;;;;6.50;82.49;97246.06;4961937;28;20567;-79
2023/12/15 11:01:16;;;;;;;3.90;3.13;;;;;;;6.71;82.00;97247.50;4993649;28;20199;-79
2023/12/15 11:03:42;;;;;;;5.33;2.10;;;;;;;6.71;81.17;97247.50;4998510;28;20230;-79
2023/12/15 11:06:07;;;;;;;3.20;2.40;;;;;;;6.75;81.45;97248.19;4997350;28;20220;-78
2023/12/15 11:08:33;;;;;;;4.67;2.63;;;;;;;6.59;82.11;97260.22;4994659;28;20661;-78
2023/12/15 11:10:58;;;;;;;5.97;2.20;;;;;;;6.84;80.76;97255.44;4978074;28;20290;-79
2023/12/15 11:14:01;;;;;;;2.03;1.80;;;;;;;6.95;80.84;97254.84;4979415;28;20534;-79
2023/12/15 11:16:38;;;;;;;3.07;1.73;;;;;;;6.97;80.86;97264.16;4976081;28;20685;-79
2023/12/15 11:19:03;;;;;;;1.77;1.67;;;;;;;6.89;80.51;97268.94;4993705;28;20206;-79
2023/12/15 11:21:29;;;;;;;3.47;2.23;;;;;;;7.09;80.37;97273.00;4978928;28;20225;-78
2023/12/15 11:24:00;;;;;;;1.77;1.67;;;;;;;7.15;79.49;97279.56;4997468;28;20267;-79
2023/12/15 11:26:34;;;;;;;4.60;1.53;;;;;;;7.24;79.61;97285.06;4979768;28;20246;-80